createdAt,value
2023-04-12T00:01:07.415Z,1.95
2023-04-12T00:03:33.990Z,1.80
2023-04-12T00:06:01.363Z,1.70
2023-04-12T00:08:27.721Z,2.13
2023-04-12T00:10:54.047Z,1.73
2023-04-12T00:13:20.351Z,1.90
2023-04-12T00:15:46.797Z,1.75
2023-04-12T00:18:13.201Z,1.85
2023-04-12T00:20:39.566Z,1.63
2023-04-12T00:23:05.898Z,1.85
2023-04-12T00:25:32.174Z,1.85
2023-04-12T00:27:58.535Z,1.85
2023-04-12T00:30:24.896Z,2.40
2023-04-12T00:32:51.174Z,1.50
2023-04-12T00:35:17.600Z,2.08
2023-04-12T00:37:43.907Z,2.03
2023-04-12T00:40:10.887Z,1.73
2023-04-12T00:42:37.465Z,1.70
2023-04-12T00:45:04.698Z,1.83
2023-04-12T00:47:31.277Z,1.55
2023-04-12T00:49:59.144Z,1.70
2023-04-12T00:52:25.549Z,1.63
2023-04-12T00:54:53.488Z,1.35
2023-04-12T00:57:20.198Z,1.40
2023-04-12T00:59:46.556Z,1.48
2023-04-12T01:02:13.065Z,1.90
2023-04-12T01:04:39.453Z,1.38
2023-04-12T01:07:18.756Z,1.20
2023-04-12T01:09:57.124Z,1.27
2023-04-12T01:12:54.818Z,1.20
2023-04-12T01:15:21.822Z,1.23
2023-04-12T01:18:04.611Z,1.52
2023-04-12T01:20:42.336Z,1.30
2023-04-12T01:23:17.863Z,1.30
2023-04-12T01:26:22.051Z,0.70
2023-04-12T01:28:52.983Z,1.45
2023-04-12T01:31:20.979Z,1.30
2023-04-12T01:33:48.712Z,1.38
2023-04-12T01:36:21.313Z,1.10
2023-04-12T01:38:49.298Z,1.45
2023-04-12T01:41:16.039Z,1.50
2023-04-12T01:43:43.653Z,1.40
2023-04-12T01:46:11.122Z,1.35
2023-04-12T01:48:38.880Z,1.17
2023-04-12T01:51:10.487Z,1.30
2023-04-12T01:53:42.522Z,1.42
2023-04-12T01:56:10.239Z,1.58
2023-04-12T01:58:39.616Z,1.60
2023-04-12T02:01:08.111Z,1.27
2023-04-12T02:03:35.509Z,1.73
2023-04-12T02:06:03.548Z,1.33
2023-04-12T02:08:29.933Z,1.55
2023-04-12T02:10:56.248Z,1.25
2023-04-12T02:13:22.572Z,1.37
2023-04-12T02:15:48.833Z,1.40
2023-04-12T02:18:15.106Z,1.60
2023-04-12T02:20:41.389Z,1.00
2023-04-12T02:23:07.700Z,1.38
2023-04-12T02:25:34.006Z,1.57
2023-04-12T02:28:00.336Z,1.27
2023-04-12T02:30:26.656Z,1.83
2023-04-12T02:32:53.020Z,1.23
2023-04-12T02:35:19.485Z,1.10
2023-04-12T02:37:47.093Z,1.13
2023-04-12T02:40:14.143Z,1.35
2023-04-12T02:42:40.558Z,1.60
2023-04-12T02:45:07.470Z,1.58
2023-04-12T02:47:33.840Z,1.50
2023-04-12T02:50:00.525Z,1.13
2023-04-12T02:52:26.860Z,1.40
2023-04-12T02:54:53.162Z,1.80
2023-04-12T02:57:19.511Z,1.90
2023-04-12T02:59:45.816Z,1.85
2023-04-12T03:02:12.247Z,1.70
2023-04-12T03:04:38.619Z,1.70
2023-04-12T03:07:04.943Z,1.70
2023-04-12T03:09:31.298Z,1.40
2023-04-12T03:11:57.765Z,1.50
2023-04-12T03:14:24.134Z,1.03
2023-04-12T03:16:50.480Z,1.40
2023-04-12T03:19:17.369Z,1.55
2023-04-12T03:21:43.624Z,1.50
2023-04-12T03:24:10.291Z,1.58
2023-04-12T03:26:36.590Z,1.57
2023-04-12T03:29:04.208Z,1.40
2023-04-12T03:31:31.229Z,1.42
2023-04-12T03:33:57.855Z,1.90
2023-04-12T03:36:24.532Z,1.70
2023-04-12T03:38:50.883Z,1.33
2023-04-12T03:41:17.211Z,1.63
2023-04-12T03:43:43.464Z,1.40
2023-04-12T03:46:09.878Z,1.15
2023-04-12T03:48:36.222Z,1.45
2023-04-12T03:51:02.567Z,1.20
2023-04-12T03:53:28.855Z,1.30
2023-04-12T03:55:55.140Z,1.30
2023-04-12T03:58:22.718Z,1.50
2023-04-12T04:00:49.180Z,1.40
2023-04-12T04:03:16.165Z,1.00
2023-04-12T04:05:42.720Z,1.05
2023-04-12T04:08:09.125Z,1.50
2023-04-12T04:10:35.765Z,1.63
2023-04-12T04:13:02.110Z,1.33
2023-04-12T04:15:28.624Z,1.20
2023-04-12T04:17:55.107Z,1.30
2023-04-12T04:20:21.454Z,1.27
2023-04-12T04:22:47.759Z,1.48
2023-04-12T04:25:15.336Z,1.48
2023-04-12T04:27:42.334Z,1.50
2023-04-12T04:30:09.166Z,1.27
2023-04-12T04:32:35.499Z,1.50
2023-04-12T04:35:01.791Z,1.30
2023-04-12T04:37:28.932Z,1.50
2023-04-12T04:39:55.287Z,1.57
2023-04-12T04:42:21.577Z,1.33
2023-04-12T04:44:48.851Z,1.30
2023-04-12T04:47:15.180Z,1.30
2023-04-12T04:49:41.485Z,1.30
2023-04-12T04:52:08.015Z,1.30
2023-04-12T04:54:35.099Z,1.20
2023-04-12T04:57:02.406Z,1.65
2023-04-12T04:59:29.034Z,1.45
2023-04-12T05:01:55.506Z,1.40
2023-04-12T05:04:21.966Z,1.23
2023-04-12T05:06:48.570Z,1.42
2023-04-12T05:09:15.115Z,1.67
2023-04-12T05:11:41.749Z,1.40
2023-04-12T05:14:09.009Z,1.50
2023-04-12T05:16:36.882Z,1.30
2023-04-12T05:19:03.534Z,1.50
2023-04-12T05:21:29.894Z,1.67
2023-04-12T05:23:56.212Z,1.50
2023-04-12T05:26:22.577Z,1.45
2023-04-12T05:28:48.889Z,1.53
2023-04-12T05:31:15.282Z,1.50
2023-04-12T05:33:41.617Z,1.50
2023-04-12T05:36:08.222Z,1.52
2023-04-12T05:38:34.743Z,1.50
2023-04-12T05:41:01.076Z,1.80
2023-04-12T05:43:27.405Z,1.90
2023-04-12T05:45:53.750Z,1.90
2023-04-12T05:48:20.120Z,1.90
2023-04-12T05:50:53.708Z,2.00
2023-04-12T05:53:21.627Z,1.77
2023-04-12T05:55:48.011Z,1.80
2023-04-12T05:58:14.425Z,1.90
2023-04-12T06:00:40.824Z,1.73
2023-04-12T06:03:07.816Z,2.28
2023-04-12T06:05:34.288Z,1.97
2023-04-12T06:08:00.808Z,2.30
2023-04-12T06:10:27.279Z,2.33
2023-04-12T06:12:53.715Z,2.72
2023-04-12T06:15:20.066Z,2.40
2023-04-12T06:17:46.381Z,2.20
2023-04-12T06:20:13.033Z,2.88
2023-04-12T06:22:39.329Z,2.50
2023-04-12T06:25:06.342Z,2.63
2023-04-12T06:27:32.644Z,2.97
2023-04-12T06:29:59.051Z,2.00
2023-04-12T06:32:25.733Z,2.00
2023-04-12T06:34:52.348Z,2.55
2023-04-12T06:37:18.735Z,2.28
2023-04-12T06:39:45.026Z,2.45
2023-04-12T06:42:12.612Z,2.20
2023-04-12T06:44:40.744Z,2.65
2023-04-12T06:47:07.151Z,3.30
2023-04-12T06:49:33.591Z,3.30
2023-04-12T06:51:59.906Z,3.13
2023-04-12T06:54:26.511Z,3.20
2023-04-12T06:56:53.134Z,3.42
2023-04-12T06:59:19.428Z,3.30
2023-04-12T07:01:45.835Z,3.00
2023-04-12T07:04:12.356Z,3.65
2023-04-12T07:06:38.735Z,3.07
2023-04-12T07:09:05.214Z,3.47
2023-04-12T07:11:31.522Z,3.58
2023-04-12T07:13:57.880Z,3.30
2023-04-12T07:16:24.457Z,4.00
2023-04-12T07:18:51.057Z,2.93
2023-04-12T07:21:17.463Z,3.05
2023-04-12T07:23:44.252Z,3.67
2023-04-12T07:26:10.634Z,3.00
2023-04-12T07:28:37.007Z,3.60
2023-04-12T07:31:07.291Z,3.20
2023-04-12T07:33:34.535Z,3.50
2023-04-12T07:36:01.550Z,4.97
2023-04-12T07:38:28.082Z,3.95
2023-04-12T07:40:55.619Z,4.10
2023-04-12T07:43:22.868Z,3.67
2023-04-12T07:45:49.509Z,3.88
2023-04-12T07:48:15.843Z,3.75
2023-04-12T07:50:42.169Z,4.05
2023-04-12T07:53:25.481Z,3.80
2023-04-12T07:55:52.741Z,3.83
2023-04-12T07:58:20.886Z,3.83
2023-04-12T08:00:47.535Z,4.55
2023-04-12T08:03:16.085Z,4.30
2023-04-12T08:05:43.111Z,4.03
2023-04-12T08:08:10.268Z,4.93
2023-04-12T08:10:38.061Z,4.20
2023-04-12T08:13:07.051Z,4.50
2023-04-12T08:15:34.012Z,4.30
2023-04-12T08:18:01.290Z,3.38
2023-04-12T08:20:27.738Z,3.53
2023-04-12T08:22:54.193Z,3.03
2023-04-12T08:25:20.681Z,3.05
2023-04-12T08:27:47.006Z,2.58
2023-04-12T08:30:13.526Z,2.75
2023-04-12T08:32:39.934Z,2.93
2023-04-12T08:35:06.477Z,3.17
2023-04-12T08:37:33.531Z,3.20
2023-04-12T08:40:02.664Z,2.63
2023-04-12T08:42:29.129Z,2.67
2023-04-12T08:44:55.467Z,2.53
2023-04-12T08:47:22.051Z,2.75
2023-04-12T08:49:48.427Z,3.08
2023-04-12T08:52:15.037Z,2.42
2023-04-12T08:54:41.457Z,2.63
2023-04-12T08:57:08.949Z,2.70
2023-04-12T08:59:38.592Z,3.50
2023-04-12T09:02:05.179Z,2.80
2023-04-12T09:04:31.801Z,2.30
2023-04-12T09:06:58.194Z,2.83
2023-04-12T09:09:44.871Z,2.43
2023-04-12T09:12:12.265Z,2.85
2023-04-12T09:14:39.902Z,2.28
2023-04-12T09:17:22.273Z,3.10
2023-04-12T09:19:48.758Z,2.25
2023-04-12T09:22:15.111Z,2.30
2023-04-12T09:24:51.035Z,2.15
2023-04-12T09:27:17.802Z,2.15
2023-04-12T09:29:44.333Z,2.17
2023-04-12T09:32:10.823Z,2.38
2023-04-12T09:34:37.175Z,2.00
2023-04-12T09:37:16.790Z,2.45
2023-04-12T09:39:43.518Z,2.00
2023-04-12T09:42:25.598Z,2.17
2023-04-12T09:44:59.329Z,2.20
2023-04-12T09:47:40.222Z,2.23
2023-04-12T09:50:08.515Z,2.15
2023-04-12T09:52:41.178Z,2.22
2023-04-12T09:55:10.925Z,2.60
2023-04-12T09:57:40.579Z,2.10
2023-04-12T10:00:08.756Z,2.50
2023-04-12T10:02:35.495Z,2.58
2023-04-12T10:05:03.105Z,2.40
2023-04-12T10:07:29.679Z,2.97
2023-04-12T10:09:59.378Z,2.00
2023-04-12T10:12:26.402Z,2.40
2023-04-12T10:14:53.791Z,2.45
2023-04-12T10:17:22.469Z,2.22
2023-04-12T10:19:49.374Z,2.65
2023-04-12T10:22:17.764Z,2.08
2023-04-12T10:24:44.100Z,2.57
2023-04-12T10:27:12.486Z,2.58
2023-04-12T10:29:38.945Z,2.13
2023-04-12T10:32:25.622Z,3.38
2023-04-12T10:34:53.929Z,2.45
2023-04-12T10:37:20.553Z,3.10
2023-04-12T10:39:54.086Z,2.30
2023-04-12T10:42:25.479Z,2.53
2023-04-12T10:44:54.059Z,2.58
2023-04-12T10:47:48.235Z,2.20
2023-04-12T10:50:26.075Z,2.17
2023-04-12T10:53:10.523Z,2.03
2023-04-12T10:55:37.007Z,2.38
2023-04-12T10:58:03.543Z,1.60
2023-04-12T11:00:58.391Z,2.08
2023-04-12T11:03:26.403Z,2.07
2023-04-12T11:06:19.994Z,2.30
2023-04-12T11:08:54.932Z,1.85
2023-04-12T11:11:21.421Z,2.40
2023-04-12T11:13:47.807Z,2.28
2023-04-12T11:16:14.212Z,1.67
2023-04-12T11:18:40.610Z,2.13
2023-04-12T11:21:07.645Z,2.10
2023-04-12T11:23:33.952Z,2.17
2023-04-12T11:26:03.280Z,2.05
2023-04-12T11:28:31.814Z,2.17
2023-04-12T11:30:59.557Z,2.10
2023-04-12T11:33:36.570Z,1.92
2023-04-12T11:36:04.816Z,2.15
2023-04-12T11:38:31.539Z,1.70
2023-04-12T11:40:57.875Z,1.80
2023-04-12T11:43:24.373Z,1.70
2023-04-12T11:45:56.739Z,1.65
2023-04-12T11:48:23.136Z,1.85
2023-04-12T11:50:59.945Z,1.63
2023-04-12T11:53:34.573Z,2.23
2023-04-12T11:56:00.922Z,2.08
2023-04-12T11:58:27.544Z,2.33
2023-04-12T12:00:55.849Z,2.40
2023-04-12T12:03:23.024Z,2.63
2023-04-12T12:05:50.217Z,1.80
2023-04-12T12:08:18.036Z,1.60
2023-04-12T12:10:59.860Z,1.50
2023-04-12T12:13:49.602Z,1.58
2023-04-12T12:16:16.768Z,1.20
2023-04-12T12:18:44.742Z,1.30
2023-04-12T12:21:13.133Z,1.45
2023-04-12T12:23:42.589Z,1.13
2023-04-12T12:26:18.857Z,1.10
2023-04-12T12:28:50.205Z,1.17
2023-04-12T12:31:19.604Z,1.60
2023-04-12T12:33:47.292Z,1.08
2023-04-12T12:36:18.079Z,1.13
2023-04-12T12:38:44.419Z,1.35
2023-04-12T12:41:21.361Z,1.50
2023-04-12T12:43:49.401Z,1.40
2023-04-12T12:46:16.483Z,1.20
2023-04-12T12:48:46.826Z,1.52
2023-04-12T12:51:15.091Z,1.00
2023-04-12T12:53:41.848Z,1.20
2023-04-12T12:56:08.804Z,1.03
2023-04-12T12:58:35.117Z,1.05
2023-04-12T13:01:01.514Z,1.10
2023-04-12T13:03:28.094Z,1.02
2023-04-12T13:05:54.536Z,1.20
2023-04-12T13:08:20.816Z,0.80
2023-04-12T13:10:47.123Z,0.80
2023-04-12T13:13:13.490Z,1.15
2023-04-12T13:15:39.795Z,0.70
2023-04-12T13:18:06.200Z,0.90
2023-04-12T13:20:32.628Z,0.90
2023-04-12T13:22:59.226Z,0.80
2023-04-12T13:25:25.655Z,1.13
2023-04-12T13:27:52.189Z,1.13
2023-04-12T13:30:19.501Z,0.95
2023-04-12T13:32:46.284Z,1.53
2023-04-12T13:35:13.208Z,1.10
2023-04-12T13:37:39.586Z,1.02
2023-04-12T13:40:06.430Z,1.00
2023-04-12T13:42:32.917Z,1.13
2023-04-12T13:44:59.356Z,0.93
2023-04-12T13:47:27.037Z,1.05
2023-04-12T13:49:53.438Z,0.90
2023-04-12T13:52:19.954Z,1.20
2023-04-12T13:54:46.487Z,0.90
2023-04-12T13:57:12.747Z,1.20
2023-04-12T13:59:39.087Z,1.17
2023-04-12T14:02:05.498Z,1.33
2023-04-12T14:04:33.307Z,0.90
2023-04-12T14:07:00.040Z,1.20
2023-04-12T14:09:28.067Z,1.33
2023-04-12T14:11:55.521Z,1.50
2023-04-12T14:14:22.668Z,1.10
2023-04-12T14:16:52.862Z,1.10
2023-04-12T14:19:20.353Z,1.20
2023-04-12T14:21:50.189Z,0.90
2023-04-12T14:24:17.760Z,1.30
2023-04-12T14:26:44.196Z,1.35
2023-04-12T14:29:10.921Z,1.02
2023-04-12T14:31:37.590Z,1.10
2023-04-12T14:34:04.980Z,1.20
2023-04-12T14:36:31.978Z,1.30
2023-04-12T14:38:58.809Z,1.27
2023-04-12T14:41:26.625Z,0.90
2023-04-12T14:43:53.329Z,1.10
2023-04-12T14:46:19.942Z,1.20
2023-04-12T14:48:46.625Z,1.30
2023-04-12T14:51:13.389Z,1.00
2023-04-12T14:53:40.951Z,1.15
2023-04-12T14:56:22.285Z,1.23
2023-04-12T14:58:54.848Z,1.10
2023-04-12T15:01:22.955Z,1.10
2023-04-12T15:03:50.292Z,1.15
2023-04-12T15:06:17.957Z,0.98
2023-04-12T15:08:44.268Z,1.08
2023-04-12T15:11:11.798Z,0.90
2023-04-12T15:13:38.957Z,1.02
2023-04-12T15:16:09.413Z,1.00
2023-04-12T15:18:39.507Z,1.23
2023-04-12T15:21:08.151Z,1.00
2023-04-12T15:23:35.471Z,1.30
2023-04-12T15:26:03.201Z,1.15
2023-04-12T15:28:29.562Z,1.20
2023-04-12T15:30:56.412Z,1.10
2023-04-12T15:33:22.790Z,1.08
2023-04-12T15:35:49.887Z,0.80
2023-04-12T15:38:20.818Z,1.00
2023-04-12T15:40:55.030Z,1.20
2023-04-12T15:43:21.918Z,0.85
2023-04-12T15:45:48.265Z,1.00
2023-04-12T15:48:14.625Z,1.03
2023-04-12T15:50:40.988Z,1.00
2023-04-12T15:53:07.265Z,1.00
2023-04-12T15:55:33.566Z,1.10
2023-04-12T15:58:00.130Z,1.00
2023-04-12T16:00:26.808Z,1.03
2023-04-12T16:02:54.027Z,1.30
2023-04-12T16:05:20.870Z,0.80
2023-04-12T16:07:47.340Z,1.15
2023-04-12T16:10:13.673Z,1.35
2023-04-12T16:12:40.032Z,1.07
2023-04-12T16:15:06.825Z,1.00
2023-04-12T16:17:33.164Z,1.40
2023-04-12T16:19:59.500Z,1.40
2023-04-12T16:22:25.914Z,1.50
2023-04-12T16:24:52.245Z,1.50
2023-04-12T16:27:19.608Z,1.10
2023-04-12T16:29:46.942Z,1.08
2023-04-12T16:32:13.466Z,1.58
2023-04-12T16:34:41.778Z,1.40
2023-04-12T16:37:08.114Z,1.40
2023-04-12T16:39:34.480Z,1.15
2023-04-12T16:42:00.864Z,1.38
2023-04-12T16:44:27.259Z,1.35
2023-04-12T16:46:53.751Z,1.20
2023-04-12T16:49:20.254Z,1.17
2023-04-12T16:51:46.607Z,1.88
2023-04-12T16:54:12.926Z,1.10
2023-04-12T16:56:39.310Z,1.45
2023-04-12T16:59:05.666Z,1.13
2023-04-12T17:01:32.049Z,1.33
2023-04-12T17:03:58.820Z,1.00
2023-04-12T17:06:26.298Z,1.55
2023-04-12T17:08:52.979Z,0.90
2023-04-12T17:11:19.395Z,1.77
2023-04-12T17:13:45.800Z,1.23
2023-04-12T17:16:12.334Z,1.60
2023-04-12T17:18:38.770Z,1.30
2023-04-12T17:21:05.729Z,1.10
2023-04-12T17:23:32.099Z,1.10
2023-04-12T17:25:58.460Z,1.20
2023-04-12T17:28:24.786Z,1.23
2023-04-12T17:30:51.288Z,1.20
2023-04-12T17:33:17.771Z,1.10
2023-04-12T17:35:44.183Z,1.83
2023-04-12T17:38:10.636Z,1.40
2023-04-12T17:40:36.990Z,1.75
2023-04-12T17:43:03.307Z,1.70
2023-04-12T17:45:30.072Z,1.35
2023-04-12T17:47:56.449Z,1.23
2023-04-12T17:50:22.917Z,1.10
2023-04-12T17:52:49.221Z,1.40
2023-04-12T17:55:15.574Z,1.70
2023-04-12T17:57:41.920Z,1.50
2023-04-12T18:00:08.884Z,1.42
2023-04-12T18:02:35.523Z,1.80
2023-04-12T18:05:02.255Z,1.65
2023-04-12T18:07:28.595Z,1.50
2023-04-12T18:09:54.999Z,1.27
2023-04-12T18:12:21.441Z,1.20
2023-04-12T18:14:47.912Z,1.53
2023-04-12T18:17:14.378Z,1.55
2023-04-12T18:19:40.730Z,1.73
2023-04-12T18:22:07.083Z,1.45
2023-04-12T18:24:33.617Z,2.03
2023-04-12T18:27:00.253Z,1.30
2023-04-12T18:29:26.935Z,1.90
2023-04-12T18:31:53.452Z,1.67
2023-04-12T18:34:19.863Z,1.58
2023-04-12T18:36:46.816Z,1.70
2023-04-12T18:39:13.313Z,1.30
2023-04-12T18:41:39.827Z,1.00
2023-04-12T18:44:06.881Z,1.80
2023-04-12T18:46:33.217Z,1.60
2023-04-12T18:48:59.587Z,1.27
2023-04-12T18:51:26.005Z,1.23
2023-04-12T18:53:52.486Z,1.50
2023-04-12T18:56:19.164Z,1.75
2023-04-12T18:58:55.013Z,1.52
2023-04-12T19:01:22.685Z,1.50
2023-04-12T19:03:49.230Z,1.50
2023-04-12T19:06:15.684Z,1.30
2023-04-12T19:08:43.001Z,1.35
2023-04-12T19:11:09.590Z,1.40
2023-04-12T19:13:36.049Z,1.60
2023-04-12T19:16:02.518Z,2.37
2023-04-12T19:18:29.070Z,1.45
2023-04-12T19:20:56.439Z,2.05
2023-04-12T19:23:23.090Z,1.58
2023-04-12T19:25:49.505Z,1.80
2023-04-12T19:28:15.913Z,2.20
2023-04-12T19:30:42.356Z,2.25
2023-04-12T19:33:09.090Z,1.98
2023-04-12T19:35:35.546Z,2.10
2023-04-12T19:38:03.317Z,2.15
2023-04-12T19:40:31.228Z,1.87
2023-04-12T19:42:57.788Z,2.13
2023-04-12T19:45:24.275Z,1.92
2023-04-12T19:47:50.650Z,2.40
2023-04-12T19:50:17.139Z,2.20
2023-04-12T19:52:43.912Z,2.20
2023-04-12T19:55:10.947Z,2.35
2023-04-12T19:57:40.581Z,2.67
2023-04-12T20:00:08.861Z,2.50
2023-04-12T20:02:35.367Z,2.63
2023-04-12T20:05:03.928Z,2.50
2023-04-12T20:07:30.255Z,3.05
2023-04-12T20:09:56.994Z,3.15
2023-04-12T20:12:23.345Z,2.35
2023-04-12T20:14:49.717Z,2.30
2023-04-12T20:17:16.134Z,2.67
2023-04-12T20:19:42.554Z,2.58
2023-04-12T20:22:08.909Z,2.60
2023-04-12T20:24:35.331Z,2.17
2023-04-12T20:27:01.940Z,2.45
2023-04-12T20:29:32.392Z,2.50
2023-04-12T20:31:58.821Z,2.38
2023-04-12T20:34:25.268Z,2.42
2023-04-12T20:36:51.762Z,2.60
2023-04-12T20:39:18.088Z,2.72
2023-04-12T20:41:44.451Z,2.43
2023-04-12T20:44:10.871Z,2.20
2023-04-12T20:46:37.299Z,2.50
2023-04-12T20:49:03.747Z,2.80
2023-04-12T20:51:30.088Z,2.50
2023-04-12T20:53:56.531Z,2.00
2023-04-12T20:56:25.318Z,2.30
2023-04-12T20:58:51.754Z,2.00
2023-04-12T21:01:18.516Z,1.88
2023-04-12T21:03:45.055Z,1.45
2023-04-12T21:06:11.515Z,1.90
2023-04-12T21:08:38.472Z,1.38
2023-04-12T21:11:05.122Z,1.83
2023-04-12T21:13:31.569Z,1.40
2023-04-12T21:15:58.094Z,1.67
2023-04-12T21:18:24.532Z,1.53
2023-04-12T21:20:50.898Z,1.63
2023-04-12T21:23:17.934Z,1.50
2023-04-12T21:25:47.134Z,1.30
2023-04-12T21:28:13.641Z,1.20
2023-04-12T21:30:40.551Z,1.23
2023-04-12T21:33:10.743Z,1.80
2023-04-12T21:35:37.113Z,1.55
2023-04-12T21:38:03.503Z,1.23
2023-04-12T21:40:29.848Z,1.40
2023-04-12T21:42:56.239Z,1.13
2023-04-12T21:45:22.772Z,1.35
2023-04-12T21:47:49.235Z,1.33
2023-04-12T21:50:15.741Z,1.10
2023-04-12T21:52:42.039Z,1.15
2023-04-12T21:55:08.778Z,1.17
2023-04-12T21:57:35.495Z,1.35
2023-04-12T22:00:02.845Z,1.30
2023-04-12T22:02:29.225Z,1.30
2023-04-12T22:04:55.876Z,1.40
2023-04-12T22:07:22.535Z,0.90
2023-04-12T22:09:55.032Z,1.42
2023-04-12T22:12:41.446Z,1.65
2023-04-12T22:15:08.754Z,0.82
2023-04-12T22:17:35.875Z,1.25
2023-04-12T22:20:02.271Z,1.40
2023-04-12T22:22:28.626Z,1.00
2023-04-12T22:24:55.245Z,1.50
2023-04-12T22:27:21.542Z,1.30
2023-04-12T22:29:47.958Z,1.48
2023-04-12T22:32:14.389Z,1.40
2023-04-12T22:34:40.783Z,1.45
2023-04-12T22:37:07.104Z,1.40
2023-04-12T22:39:33.497Z,1.25
2023-04-12T22:41:59.912Z,1.08
2023-04-12T22:44:26.955Z,1.10
2023-04-12T22:46:54.479Z,1.08
2023-04-12T22:49:25.917Z,1.50
2023-04-12T22:51:52.229Z,1.10
2023-04-12T22:54:18.640Z,1.00
2023-04-12T22:56:44.962Z,0.70
2023-04-12T22:59:11.987Z,1.20
2023-04-12T23:01:38.442Z,1.00
2023-04-12T23:04:05.109Z,1.20
2023-04-12T23:06:31.507Z,0.70
2023-04-12T23:08:57.919Z,1.13
2023-04-12T23:11:24.291Z,1.00
2023-04-12T23:13:50.607Z,1.00
2023-04-12T23:16:17.062Z,1.40
2023-04-12T23:18:43.440Z,1.02
2023-04-12T23:21:09.900Z,1.13
2023-04-12T23:23:36.348Z,1.00
2023-04-12T23:26:02.856Z,1.20
2023-04-12T23:28:29.204Z,1.60
2023-04-12T23:30:55.526Z,1.30
2023-04-12T23:33:21.900Z,1.00
2023-04-12T23:35:49.564Z,1.20
2023-04-12T23:38:16.970Z,1.23
2023-04-12T23:40:43.371Z,1.25
2023-04-12T23:43:09.751Z,1.05
2023-04-12T23:45:36.839Z,0.80
2023-04-12T23:48:04.384Z,1.30
2023-04-12T23:50:30.782Z,1.13
2023-04-12T23:52:57.051Z,1.20
2023-04-12T23:55:23.376Z,1.27
2023-04-12T23:57:49.761Z,1.00
